Time;durP1;ratioP1;P1;durP2;ratioP2;P2;SDS_P1;SDS_P2;PMS_P1;PMS_P2;Temp;Humidity;BMP_temperature;BMP_pressure;BME280_temperature;BME280_humidity;BME280_pressure;Samples;Min_cycle;Max_cycle;Signal;HPM_P1;HPM_P2
2021/06/03 00:02:09;;;;;;;5.20;4.80;;;22.70;59.40;;;;;;5038210;28;20292;-90
2021/06/03 00:04:35;;;;;;;4.00;3.80;;;22.80;58.50;;;;;;5038973;28;20205;-87
2021/06/03 00:07:01;;;;;;;6.32;5.72;;;22.80;57.70;;;;;;5019346;28;20821;-89
2021/06/03 00:09:26;;;;;;;5.30;4.90;;;22.90;57.60;;;;;;5034273;28;20218;-89
2021/06/03 00:11:52;;;;;;;4.50;4.10;;;22.90;59.30;;;;;;5035012;28;20197;-88
2021/06/03 00:14:18;;;;;;;7.28;4.70;;;22.70;60.50;;;;;;5016936;28;20189;-89
2021/06/03 00:16:44;;;;;;;4.47;3.90;;;22.40;60.90;;;;;;5034115;28;20188;-90
2021/06/03 00:19:11;;;;;;;4.55;4.13;;;22.50;60.10;;;;;;5034708;28;20501;-90
2021/06/03 00:21:41;;;;;;;4.43;4.13;;;22.60;59.70;;;;;;5017023;28;20261;-89
2021/06/03 00:24:07;;;;;;;4.90;4.50;;;22.70;59.40;;;;;;5022763;28;20599;-89
2021/06/03 00:26:34;;;;;;;4.70;4.30;;;22.70;59.80;;;;;;5019587;28;20169;-87
2021/06/03 00:29:00;;;;;;;5.90;4.35;;;22.70;59.80;;;;;;5007345;28;20536;-88
2021/06/03 00:31:26;;;;;;;4.57;4.28;;;22.80;59.10;;;;;;5032343;28;20575;-88
2021/06/03 00:33:52;;;;;;;5.15;4.65;;;22.90;58.70;;;;;;5017532;28;20178;-88
2021/06/03 00:36:17;;;;;;;5.47;4.43;;;22.90;57.20;;;;;;5015865;28;20180;-87
2021/06/03 00:38:43;;;;;;;4.45;4.05;;;23.00;57.70;;;;;;5017036;28;20208;-89
2021/06/03 00:41:09;;;;;;;5.43;4.82;;;23.00;57.90;;;;;;5025705;28;20224;-88
2021/06/03 00:43:36;;;;;;;4.82;4.40;;;23.00;58.80;;;;;;5030498;28;20321;-87
2021/06/03 00:46:03;;;;;;;4.40;4.03;;;23.00;58.20;;;;;;5012099;28;20224;-88
2021/06/03 00:48:29;;;;;;;5.60;5.10;;;23.00;58.70;;;;;;4999871;28;20181;-89
2021/06/03 00:50:58;;;;;;;7.03;5.20;;;22.80;59.40;;;;;;5015808;28;20276;-89
2021/06/03 00:53:24;;;;;;;5.30;4.90;;;22.70;59.80;;;;;;5016360;28;20231;-89
2021/06/03 00:55:52;;;;;;;5.45;4.90;;;22.60;59.40;;;;;;4999261;28;20182;-89
2021/06/03 00:58:19;;;;;;;6.68;5.97;;;22.60;60.20;;;;;;5017050;28;20186;-90
2021/06/03 01:00:45;;;;;;;5.40;5.00;;;22.50;60.40;;;;;;5016024;28;20248;-88
2021/06/03 01:03:11;;;;;;;5.75;4.93;;;22.50;60.40;;;;;;5025911;28;20555;-88
2021/06/03 01:06:00;;;;;;;5.35;4.95;;;22.50;60.40;;;;;;5019182;28;20205;-88
2021/06/03 01:08:37;;;;;;;5.50;5.10;;;22.40;60.50;;;;;;5018003;28;20189;-89
2021/06/03 01:11:10;;;;;;;5.03;4.53;;;22.50;60.30;;;;;;5017688;28;20193;-88
2021/06/03 01:13:38;;;;;;;5.22;4.82;;;22.60;59.80;;;;;;5017437;28;20574;-89
2021/06/03 01:16:05;;;;;;;5.25;4.85;;;22.60;59.90;;;;;;5017626;28;20220;-87
2021/06/03 01:18:33;;;;;;;5.10;4.80;;;22.50;60.20;;;;;;5017450;28;20701;-88
2021/06/03 01:21:04;;;;;;;4.53;4.22;;;22.60;59.60;;;;;;5027865;28;20211;-88
2021/06/03 01:23:48;;;;;;;5.10;4.65;;;22.70;59.50;;;;;;5020223;28;20689;-88
2021/06/03 01:26:17;;;;;;;5.18;4.75;;;22.70;59.40;;;;;;5037157;28;20187;-90
2021/06/03 01:28:44;;;;;;;7.07;5.35;;;22.60;60.50;;;;;;5019457;28;20181;-89
2021/06/03 01:31:10;;;;;;;6.45;4.85;;;22.50;60.70;;;;;;4999240;28;20626;-88
2021/06/03 01:33:41;;;;;;;4.82;4.45;;;22.50;60.20;;;;;;5017290;28;20184;-88
2021/06/03 01:36:11;;;;;;;5.78;4.63;;;22.40;60.40;;;;;;5036648;28;20193;-89
2021/06/03 01:38:39;;;;;;;4.88;4.57;;;22.50;60.20;;;;;;5038195;28;20279;-89
2021/06/03 01:41:08;;;;;;;5.50;5.00;;;22.50;59.90;;;;;;5037687;28;20200;-88
2021/06/03 01:43:36;;;;;;;5.32;4.82;;;22.60;60.40;;;;;;5019656;28;20199;-87
2021/06/03 01:46:03;;;;;;;6.88;5.18;;;22.60;60.80;;;;;;5017720;28;20262;-89
2021/06/03 01:48:28;;;;;;;4.90;4.38;;;22.50;60.90;;;;;;5036964;28;20181;-87
2021/06/03 01:50:58;;;;;;;5.60;5.18;;;22.50;61.60;;;;;;5019089;28;20258;-88
2021/06/03 01:53:26;;;;;;;5.55;5.15;;;22.30;61.40;;;;;;5036885;28;20184;-88
2021/06/03 01:55:53;;;;;;;5.60;5.20;;;22.20;61.80;;;;;;5036982;28;20260;-88
2021/06/03 01:58:20;;;;;;;5.80;5.30;;;22.30;62.20;;;;;;5030816;28;20541;-88
2021/06/03 02:00:46;;;;;;;5.63;5.13;;;22.20;61.90;;;;;;5016731;28;20233;-89
2021/06/03 02:03:11;;;;;;;5.40;4.90;;;22.20;62.10;;;;;;5018018;28;20197;-89
2021/06/03 02:05:37;;;;;;;5.97;5.32;;;22.10;63.50;;;;;;5016537;28;20873;-88
2021/06/03 02:08:03;;;;;;;5.72;5.30;;;21.80;64.80;;;;;;5020790;28;20193;-89
2021/06/03 02:10:29;;;;;;;5.50;5.07;;;21.80;65.00;;;;;;5029491;28;20259;-88
2021/06/03 02:13:18;;;;;;;7.95;5.18;;;21.70;65.30;;;;;;5027377;28;20185;-89
2021/06/03 02:16:13;;;;;;;6.82;5.30;;;21.60;66.30;;;;;;5037089;28;20181;-88
2021/06/03 02:18:47;;;;;;;6.28;5.78;;;21.50;66.30;;;;;;5036927;28;20208;-88
2021/06/03 02:21:14;;;;;;;5.95;5.55;;;21.20;67.80;;;;;;5037252;28;20205;-89
2021/06/03 02:23:41;;;;;;;7.85;6.05;;;21.00;69.20;;;;;;5036596;28;20182;-88
2021/06/03 02:26:07;;;;;;;6.28;5.85;;;20.80;69.70;;;;;;5036506;28;20213;-89
2021/06/03 02:28:34;;;;;;;7.30;5.88;;;20.70;70.40;;;;;;5037563;28;20190;-86
2021/06/03 02:31:00;;;;;;;7.15;5.97;;;20.70;70.50;;;;;;5037777;28;20207;-89
2021/06/03 02:33:28;;;;;;;6.60;6.00;;;20.70;70.40;;;;;;5040771;28;20259;-88
2021/06/03 02:35:54;;;;;;;6.53;5.97;;;20.80;70.40;;;;;;5051977;28;20175;-88
2021/06/03 02:38:25;;;;;;;6.10;5.50;;;20.80;69.80;;;;;;5041835;28;20181;-88
2021/06/03 02:40:53;;;;;;;6.28;5.68;;;21.00;69.20;;;;;;5006789;28;20242;-89
2021/06/03 02:43:19;;;;;;;7.88;6.45;;;21.10;68.60;;;;;;5040268;28;20693;-88
2021/06/03 02:45:46;;;;;;;7.05;6.18;;;21.10;68.70;;;;;;5040464;28;20753;-89
2021/06/03 02:48:12;;;;;;;8.77;6.25;;;21.10;69.10;;;;;;5040981;28;20273;-87
2021/06/03 02:50:37;;;;;;;6.22;5.72;;;21.10;69.20;;;;;;5040865;28;20694;-87
2021/06/03 02:53:03;;;;;;;7.65;7.00;;;21.00;69.30;;;;;;5037448;28;20321;-87
2021/06/03 02:55:30;;;;;;;6.18;5.57;;;21.00;69.80;;;;;;5026388;28;20184;-88
2021/06/03 02:57:55;;;;;;;7.38;6.25;;;21.00;68.90;;;;;;5002794;28;20771;-87
2021/06/03 03:00:29;;;;;;;6.80;6.15;;;21.10;68.70;;;;;;5020218;28;20212;-88
2021/06/03 03:02:56;;;;;;;6.18;5.78;;;21.10;68.90;;;;;;5020387;28;20181;-88
2021/06/03 03:05:21;;;;;;;6.32;5.72;;;21.20;68.40;;;;;;5020017;28;20207;-88
2021/06/03 03:07:48;;;;;;;6.50;6.00;;;21.30;68.40;;;;;;5020280;28;20182;-89
2021/06/03 03:10:23;;;;;;;6.32;5.82;;;21.30;67.70;;;;;;5020232;28;20197;-89
2021/06/03 03:12:49;;;;;;;5.50;5.05;;;21.30;67.10;;;;;;5027138;28;20172;-88
2021/06/03 03:15:17;;;;;;;6.75;6.15;;;21.40;66.90;;;;;;5039912;28;20268;-88
2021/06/03 03:17:43;;;;;;;6.50;6.00;;;21.50;66.30;;;;;;5039767;28;20191;-88
2021/06/03 03:20:11;;;;;;;6.65;6.13;;;21.60;66.30;;;;;;5036177;28;20244;-87
2021/06/03 03:22:38;;;;;;;6.30;5.70;;;21.60;65.90;;;;;;5015928;28;20205;-90
2021/06/03 03:25:07;;;;;;;5.90;5.40;;;21.50;67.00;;;;;;5015932;28;20206;-89
2021/06/03 03:27:33;;;;;;;6.13;5.68;;;21.50;65.90;;;;;;4998613;28;20185;-88
2021/06/03 03:29:58;;;;;;;5.75;5.25;;;21.60;65.50;;;;;;5022252;28;20315;-87
2021/06/03 03:32:24;;;;;;;5.95;5.43;;;21.60;65.10;;;;;;5034614;28;20300;-89
2021/06/03 03:34:49;;;;;;;7.07;5.28;;;21.60;66.00;;;;;;5034885;28;20184;-89
2021/06/03 03:37:15;;;;;;;6.10;5.50;;;21.60;66.40;;;;;;5034410;28;20196;-89
2021/06/03 03:39:41;;;;;;;5.75;5.22;;;21.50;66.80;;;;;;5034842;28;20185;-89
2021/06/03 03:42:07;;;;;;;5.68;5.18;;;21.50;66.50;;;;;;5033347;28;20307;-86
2021/06/03 03:44:33;;;;;;;5.72;5.35;;;21.50;66.50;;;;;;4998152;28;20251;-89
2021/06/03 03:46:58;;;;;;;6.10;5.60;;;21.40;67.70;;;;;;5002597;28;20548;-89
2021/06/03 03:49:25;;;;;;;8.40;5.30;;;21.40;67.00;;;;;;4997258;28;20651;-89
2021/06/03 03:51:50;;;;;;;5.90;5.50;;;21.40;67.30;;;;;;5025194;28;20225;-89
2021/06/03 03:54:16;;;;;;;6.43;5.93;;;21.40;66.50;;;;;;5030417;28;20227;-90
2021/06/03 03:56:41;;;;;;;6.32;5.82;;;21.40;67.20;;;;;;5033332;28;20185;-90
2021/06/03 03:59:07;;;;;;;5.88;5.38;;;21.50;66.70;;;;;;5016348;28;20250;-89
2021/06/03 04:01:33;;;;;;;6.45;5.85;;;21.40;67.40;;;;;;5033756;28;20201;-88
2021/06/03 04:03:58;;;;;;;5.93;5.43;;;21.30;67.90;;;;;;5033788;28;20204;-88
2021/06/03 04:06:24;;;;;;;6.57;5.97;;;21.30;66.60;;;;;;5034282;28;20315;-89
2021/06/03 04:08:50;;;;;;;6.32;5.82;;;21.30;68.00;;;;;;5033836;28;20181;-88
2021/06/03 04:11:15;;;;;;;5.75;5.35;;;21.20;67.60;;;;;;5033911;28;20274;-86
2021/06/03 04:13:41;;;;;;;6.20;5.65;;;21.30;67.70;;;;;;5003143;28;20198;-89
2021/06/03 04:16:07;;;;;;;6.82;5.85;;;21.20;68.40;;;;;;4997049;28;20189;-90
2021/06/03 04:18:32;;;;;;;6.57;6.07;;;21.20;68.30;;;;;;4997272;28;20256;-89
2021/06/03 04:20:59;;;;;;;6.68;6.07;;;21.20;68.50;;;;;;4999816;28;20257;-89
2021/06/03 04:23:25;;;;;;;6.88;5.53;;;21.10;68.00;;;;;;5033300;28;20218;-89
2021/06/03 04:25:51;;;;;;;6.82;6.32;;;21.10;68.30;;;;;;5016394;28;20702;-89
2021/06/03 04:28:16;;;;;;;5.82;5.22;;;21.20;67.60;;;;;;5016035;28;20212;-89
2021/06/03 04:30:45;;;;;;;6.65;6.05;;;21.10;68.20;;;;;;5040543;28;20212;-87
2021/06/03 04:33:11;;;;;;;6.78;6.28;;;21.20;67.20;;;;;;5036482;28;20342;-89
2021/06/03 04:35:37;;;;;;;6.43;5.75;;;21.20;67.60;;;;;;5024907;28;20711;-88
2021/06/03 04:38:04;;;;;;;6.55;5.95;;;21.30;67.70;;;;;;5013832;28;20196;-89
2021/06/03 04:40:30;;;;;;;6.22;5.80;;;21.20;69.20;;;;;;5015151;28;20698;-88
2021/06/03 04:42:57;;;;;;;7.35;6.07;;;21.10;69.40;;;;;;5024741;28;20197;-86
2021/06/03 04:45:23;;;;;;;6.65;6.00;;;21.00;69.30;;;;;;5034943;28;20269;-86
2021/06/03 04:47:49;;;;;;;7.65;6.15;;;21.00;68.60;;;;;;5023064;28;20303;-89
2021/06/03 04:50:18;;;;;;;7.28;6.57;;;21.00;68.90;;;;;;5020471;28;20181;-88
2021/06/03 04:52:45;;;;;;;6.07;5.65;;;21.00;69.40;;;;;;5036886;28;20189;-89
2021/06/03 04:55:15;;;;;;;6.88;6.20;;;21.00;68.90;;;;;;5038220;28;20674;-87
2021/06/03 04:57:42;;;;;;;7.10;6.43;;;21.20;67.70;;;;;;5044173;28;20183;-90
2021/06/03 05:00:10;;;;;;;6.93;6.38;;;21.20;67.80;;;;;;5037219;28;20700;-90
2021/06/03 05:02:36;;;;;;;7.10;6.40;;;21.20;68.40;;;;;;5033875;28;20270;-89
2021/06/03 05:05:03;;;;;;;6.53;6.03;;;21.20;68.10;;;;;;5017392;28;20247;-89
2021/06/03 05:07:29;;;;;;;6.97;6.43;;;21.20;67.80;;;;;;5013818;28;20181;-89
2021/06/03 05:09:55;;;;;;;7.05;6.35;;;21.30;68.20;;;;;;5013355;28;20174;-90
2021/06/03 05:12:20;;;;;;;6.88;6.28;;;21.30;68.60;;;;;;5009145;28;20212;-89
2021/06/03 05:14:46;;;;;;;7.75;6.68;;;21.20;68.00;;;;;;5036056;28;20221;-88
2021/06/03 05:17:12;;;;;;;6.28;5.88;;;21.20;68.90;;;;;;5044254;28;20234;-88
2021/06/03 05:19:37;;;;;;;7.35;5.88;;;21.20;68.40;;;;;;5027647;28;20295;-89
2021/06/03 05:22:04;;;;;;;6.45;5.88;;;21.30;67.50;;;;;;5036052;28;20287;-88
2021/06/03 05:24:30;;;;;;;6.85;6.38;;;21.20;67.70;;;;;;5038457;28;20205;-89
2021/06/03 05:26:56;;;;;;;7.57;6.88;;;21.20;67.80;;;;;;5003205;28;20192;-89
2021/06/03 05:29:21;;;;;;;8.77;7.13;;;21.30;68.10;;;;;;5018614;28;20177;-88
2021/06/03 05:31:47;;;;;;;7.40;6.72;;;21.20;67.60;;;;;;5010038;28;20201;-89
2021/06/03 05:34:14;;;;;;;7.68;6.93;;;21.10;69.00;;;;;;5018411;28;20706;-89
2021/06/03 05:36:40;;;;;;;7.40;6.70;;;21.10;68.60;;;;;;5018086;28;20184;-88
2021/06/03 05:39:07;;;;;;;7.80;7.15;;;21.00;69.10;;;;;;4985334;28;20280;-88
2021/06/03 05:41:33;;;;;;;8.05;7.45;;;21.00;69.90;;;;;;5023915;28;20212;-88
2021/06/03 05:44:00;;;;;;;8.57;7.40;;;20.90;69.50;;;;;;5037610;28;20267;-88
2021/06/03 05:46:26;;;;;;;7.80;7.20;;;21.20;69.50;;;;;;5038504;28;20223;-88
2021/06/03 05:48:51;;;;;;;9.10;7.53;;;21.20;69.90;;;;;;5037580;28;20187;-89
2021/06/03 05:51:18;;;;;;;8.00;7.30;;;21.10;69.60;;;;;;5033176;28;20204;-88
2021/06/03 05:53:44;;;;;;;7.45;6.85;;;21.20;69.60;;;;;;5018304;28;20182;-88
2021/06/03 05:56:09;;;;;;;8.18;7.38;;;21.30;70.40;;;;;;5001188;28;20264;-88
2021/06/03 05:58:35;;;;;;;7.32;6.82;;;21.40;70.30;;;;;;5018428;28;20182;-88
2021/06/03 06:01:01;;;;;;;7.55;6.93;;;21.60;69.50;;;;;;5018567;28;20276;-88
2021/06/03 06:06:24;;;;;;;7.60;6.88;;;21.80;68.90;;;;;;5017790;28;20217;-86
2021/06/03 06:08:55;;;;;;;7.05;6.30;;;21.80;69.40;;;;;;5007997;28;20253;-90
2021/06/03 06:11:21;;;;;;;7.68;6.95;;;21.90;68.30;;;;;;5024921;28;20302;-88
2021/06/03 06:13:47;;;;;;;6.85;6.18;;;21.80;69.70;;;;;;5040919;28;20220;-88
2021/06/03 06:16:14;;;;;;;10.05;6.55;;;21.80;70.30;;;;;;5040870;28;20223;-89
2021/06/03 06:18:40;;;;;;;7.03;6.10;;;22.00;70.70;;;;;;5023807;28;20248;-88
2021/06/03 06:21:07;;;;;;;7.32;6.65;;;22.10;68.50;;;;;;5041767;28;20215;-88
2021/06/03 06:23:35;;;;;;;6.30;5.80;;;22.10;68.60;;;;;;5022196;28;20752;-88
2021/06/03 06:26:01;;;;;;;6.50;5.72;;;22.10;69.20;;;;;;5025363;28;20247;-88
2021/06/03 06:28:27;;;;;;;6.45;5.90;;;22.20;69.20;;;;;;5041763;28;20182;-89
2021/06/03 06:30:53;;;;;;;6.43;5.85;;;22.30;68.10;;;;;;5039356;28;20218;-89
2021/06/03 06:33:19;;;;;;;5.90;5.43;;;22.30;66.80;;;;;;5042467;28;20196;-89
2021/06/03 06:35:48;;;;;;;6.63;6.03;;;22.30;67.20;;;;;;5026473;28;20190;-88
2021/06/03 06:38:14;;;;;;;6.60;6.00;;;22.30;67.50;;;;;;5038579;28;20188;-87
2021/06/03 06:40:40;;;;;;;6.03;5.63;;;22.30;67.10;;;;;;5034264;28;20283;-88
2021/06/03 06:43:05;;;;;;;7.10;6.40;;;22.20;68.90;;;;;;5012425;28;20193;-89
2021/06/03 06:45:32;;;;;;;7.97;6.50;;;21.90;69.40;;;;;;5026676;28;20280;-89
2021/06/03 06:47:58;;;;;;;7.15;6.47;;;21.80;69.70;;;;;;5013654;28;20237;-88
2021/06/03 06:50:26;;;;;;;7.65;6.57;;;21.90;70.30;;;;;;5025851;28;20180;-88
2021/06/03 06:52:53;;;;;;;6.85;6.20;;;21.90;70.30;;;;;;5047062;28;20231;-88
2021/06/03 06:55:18;;;;;;;7.40;6.10;;;22.00;69.50;;;;;;5045084;28;20191;-90
2021/06/03 06:57:44;;;;;;;6.85;6.25;;;22.20;69.70;;;;;;5042503;28;20188;-88
2021/06/03 07:00:12;;;;;;;6.78;6.28;;;22.30;68.70;;;;;;4992388;28;20200;-88
2021/06/03 07:02:38;;;;;;;6.43;5.93;;;22.30;69.30;;;;;;5011178;28;20179;-89
2021/06/03 07:05:09;;;;;;;6.57;5.97;;;22.30;69.60;;;;;;5044082;28;20271;-88
2021/06/03 07:07:35;;;;;;;6.40;5.90;;;22.50;68.40;;;;;;5040208;28;20166;-88
2021/06/03 07:10:01;;;;;;;7.30;6.63;;;22.60;67.30;;;;;;5022013;28;20205;-87
2021/06/03 07:12:27;;;;;;;7.22;6.53;;;22.60;67.50;;;;;;5021366;28;20201;-88
2021/06/03 07:14:52;;;;;;;7.38;6.18;;;22.50;68.10;;;;;;5020403;28;20191;-87
2021/06/03 07:17:18;;;;;;;6.10;5.50;;;22.60;67.90;;;;;;5038184;28;20207;-88
2021/06/03 07:19:44;;;;;;;6.53;6.03;;;22.60;67.70;;;;;;5022464;28;20181;-87
2021/06/03 07:22:10;;;;;;;6.22;5.63;;;22.80;67.80;;;;;;5040833;28;20690;-88
2021/06/03 07:24:37;;;;;;;5.63;5.13;;;23.00;67.30;;;;;;5023554;28;20209;-88
2021/06/03 07:27:04;;;;;;;6.10;5.60;;;23.00;65.00;;;;;;5038778;28;20191;-89
2021/06/03 07:29:29;;;;;;;6.50;5.75;;;23.10;66.20;;;;;;5023650;28;20185;-88
2021/06/03 07:31:55;;;;;;;7.38;5.80;;;23.20;65.50;;;;;;5031499;28;20295;-88
2021/06/03 07:34:21;;;;;;;6.20;5.70;;;23.20;65.50;;;;;;5002346;28;20641;-89
2021/06/03 07:36:46;;;;;;;5.72;5.22;;;23.30;65.70;;;;;;5035566;28;20201;-89
2021/06/03 07:39:12;;;;;;;5.88;5.47;;;23.50;66.00;;;;;;5043426;28;20271;-88
2021/06/03 07:41:38;;;;;;;5.65;5.20;;;23.70;64.70;;;;;;5030430;28;20202;-88
2021/06/03 07:44:04;;;;;;;7.72;6.18;;;23.70;64.80;;;;;;5038610;28;20242;-89
2021/06/03 07:46:31;;;;;;;5.47;4.95;;;23.80;63.30;;;;;;5013196;28;20244;-89
2021/06/03 07:48:57;;;;;;;5.57;5.10;;;23.90;62.70;;;;;;5018265;28;20201;-89
2021/06/03 07:51:22;;;;;;;6.22;5.63;;;24.00;62.70;;;;;;5029748;28;20216;-89
2021/06/03 07:53:48;;;;;;;5.38;4.97;;;23.80;64.40;;;;;;5032615;28;20181;-89
2021/06/03 07:56:15;;;;;;;6.43;5.22;;;23.90;63.30;;;;;;5019623;28;20262;-88
2021/06/03 07:58:41;;;;;;;5.22;4.72;;;24.20;62.70;;;;;;5034397;28;20184;-89
2021/06/03 08:01:06;;;;;;;4.93;4.50;;;24.40;61.30;;;;;;5038085;28;20291;-89
2021/06/03 08:03:32;;;;;;;4.68;4.28;;;24.20;60.80;;;;;;5038799;28;20602;-88
2021/06/03 08:05:58;;;;;;;5.03;4.60;;;24.30;61.00;;;;;;5040256;28;20204;-89
2021/06/03 08:08:24;;;;;;;4.68;4.32;;;24.10;60.20;;;;;;5024943;28;20185;-90
2021/06/03 08:10:49;;;;;;;4.75;4.28;;;24.10;59.20;;;;;;5024232;28;20224;-89
2021/06/03 08:13:15;;;;;;;4.85;4.43;;;24.20;59.60;;;;;;5019801;28;20293;-89
2021/06/03 08:15:43;;;;;;;5.03;4.57;;;24.20;59.40;;;;;;5020367;28;20235;-87
2021/06/03 08:18:10;;;;;;;5.07;4.60;;;24.30;58.90;;;;;;5026109;28;20248;-88
2021/06/03 08:20:41;;;;;;;4.95;4.55;;;24.40;59.30;;;;;;5009068;28;20213;-87
2021/06/03 08:23:09;;;;;;;4.47;4.07;;;24.40;60.00;;;;;;5006104;28;20185;-89
2021/06/03 08:25:35;;;;;;;5.43;4.47;;;24.50;59.20;;;;;;5030124;28;20208;-88
2021/06/03 08:28:02;;;;;;;4.60;4.20;;;24.60;58.80;;;;;;5037784;28;20181;-88
2021/06/03 08:30:28;;;;;;;4.10;3.70;;;24.70;57.70;;;;;;5035305;28;20181;-88
2021/06/03 08:32:53;;;;;;;5.60;4.00;;;24.80;56.30;;;;;;5033398;28;20169;-89
2021/06/03 08:35:22;;;;;;;4.68;4.28;;;24.70;56.60;;;;;;5018917;28;20238;-86
2021/06/03 08:37:54;;;;;;;5.00;4.53;;;24.80;57.40;;;;;;5017420;28;20552;-87
2021/06/03 08:40:23;;;;;;;7.53;4.40;;;24.70;56.50;;;;;;5014340;28;20178;-87
2021/06/03 08:42:54;;;;;;;4.70;4.18;;;24.80;56.40;;;;;;5032018;28;20211;-88
2021/06/03 08:45:23;;;;;;;4.57;4.07;;;24.90;57.40;;;;;;5008636;28;20224;-88
2021/06/03 08:47:50;;;;;;;7.80;4.40;;;25.10;55.70;;;;;;5031383;28;20668;-88
2021/06/03 08:50:16;;;;;;;6.85;4.53;;;25.20;54.90;;;;;;5016443;28;20204;-88
2021/06/03 08:52:43;;;;;;;4.25;3.95;;;25.30;56.20;;;;;;5017387;28;20212;-88
2021/06/03 08:56:14;;;;;;;4.90;4.47;;;25.30;55.70;;;;;;5014212;28;20177;-89
2021/06/03 08:58:05;;;;;;;4.70;4.30;;;25.30;55.80;;;;;;5031960;28;20744;-88
2021/06/03 09:00:33;;;;;;;6.00;4.65;;;25.40;54.80;;;;;;5031045;28;20202;-89
2021/06/03 09:02:59;;;;;;;5.97;4.90;;;25.50;54.90;;;;;;5031022;28;20189;-89
2021/06/03 09:05:28;;;;;;;5.63;5.07;;;25.50;55.70;;;;;;5019886;28;20205;-89
2021/06/03 09:07:53;;;;;;;6.68;5.20;;;25.60;55.50;;;;;;5032812;28;20680;-87
2021/06/03 09:10:44;;;;;;;4.43;3.90;;;25.90;54.90;;;;;;5021016;28;20280;-87
2021/06/03 09:13:16;;;;;;;5.65;3.83;;;26.00;52.60;;;;;;5040426;28;20250;-89
2021/06/03 09:15:59;;;;;;;4.50;3.83;;;26.00;53.70;;;;;;5038544;28;20169;-87
2021/06/03 09:18:37;;;;;;;4.47;4.07;;;26.20;51.90;;;;;;5037103;28;20235;-87
2021/06/03 09:21:10;;;;;;;3.85;3.55;;;26.20;51.60;;;;;;5028121;28;20197;-88
2021/06/03 09:23:36;;;;;;;4.82;4.18;;;26.00;52.20;;;;;;5002554;28;20193;-88
2021/06/03 09:26:10;;;;;;;4.22;3.88;;;25.90;52.70;;;;;;5031135;28;20323;-88
2021/06/03 09:28:39;;;;;;;3.85;3.60;;;26.00;53.50;;;;;;5007821;28;20169;-89
2021/06/03 09:31:22;;;;;;;4.15;3.75;;;26.40;52.30;;;;;;5023802;28;20692;-89
2021/06/03 09:33:53;;;;;;;5.20;4.40;;;26.50;50.60;;;;;;5004778;28;20197;-90
2021/06/03 09:36:49;;;;;;;4.38;3.97;;;26.30;51.00;;;;;;5028650;28;20197;-89
2021/06/03 09:39:15;;;;;;;6.07;4.00;;;26.20;51.60;;;;;;5029239;28;20211;-88
2021/06/03 09:42:03;;;;;;;4.72;4.40;;;26.40;51.40;;;;;;5033598;28;20205;-88
2021/06/03 09:44:31;;;;;;;4.50;4.10;;;26.40;52.10;;;;;;5026287;28;20223;-87
2021/06/03 09:47:06;;;;;;;6.85;5.10;;;26.50;51.80;;;;;;5029220;28;20280;-89
2021/06/03 09:49:35;;;;;;;5.28;4.53;;;26.80;52.00;;;;;;5014126;28;20173;-88
2021/06/03 09:52:03;;;;;;;5.07;4.40;;;27.10;52.40;;;;;;5019965;28;20194;-88
2021/06/03 09:54:29;;;;;;;6.18;4.63;;;27.20;48.90;;;;;;5016876;28;20228;-88
2021/06/03 09:56:59;;;;;;;5.10;4.60;;;27.10;50.40;;;;;;5014404;28;20564;-88
2021/06/03 09:59:28;;;;;;;4.95;4.55;;;27.30;50.20;;;;;;5015001;28;20185;-88
2021/06/03 10:01:56;;;;;;;5.22;4.75;;;27.10;51.40;;;;;;5019372;28;20243;-88
2021/06/03 10:04:44;;;;;;;5.13;4.40;;;27.10;51.70;;;;;;5017134;28;20227;-88
2021/06/03 10:07:27;;;;;;;4.97;4.45;;;27.20;51.10;;;;;;5023419;28;20200;-88
2021/06/03 10:10:04;;;;;;;4.68;4.38;;;27.50;48.50;;;;;;4999089;28;20608;-88
2021/06/03 10:12:39;;;;;;;4.60;4.20;;;28.00;48.90;;;;;;5014102;28;20262;-88
2021/06/03 10:15:09;;;;;;;4.45;4.13;;;28.10;48.70;;;;;;5019590;28;20608;-88
2021/06/03 10:18:00;;;;;;;4.95;4.53;;;28.00;48.60;;;;;;5010525;28;20189;-87
2021/06/03 10:20:47;;;;;;;6.05;5.00;;;28.10;49.30;;;;;;5016021;28;20161;-88
2021/06/03 10:23:22;;;;;;;4.72;4.32;;;28.00;48.20;;;;;;5009332;28;20188;-89
2021/06/03 10:26:01;;;;;;;5.40;4.75;;;28.00;48.70;;;;;;5020897;28;20197;-88
2021/06/03 10:28:28;;;;;;;6.97;4.70;;;28.10;48.00;;;;;;5012901;28;20185;-88
2021/06/03 10:30:57;;;;;;;4.72;4.32;;;28.20;47.20;;;;;;5000950;28;20201;-88
2021/06/03 10:33:30;;;;;;;5.57;4.65;;;28.20;47.00;;;;;;5015326;28;20186;-88
2021/06/03 10:35:58;;;;;;;7.55;4.97;;;28.20;47.90;;;;;;5014681;28;20186;-88
2021/06/03 10:38:26;;;;;;;4.90;4.47;;;28.50;46.90;;;;;;5015546;28;20177;-89
2021/06/03 10:40:58;;;;;;;6.18;4.55;;;28.50;46.90;;;;;;5016491;28;20194;-87
2021/06/03 10:43:25;;;;;;;5.15;4.72;;;28.70;45.80;;;;;;5024057;28;20208;-87
2021/06/03 10:45:51;;;;;;;5.07;4.57;;;28.80;45.20;;;;;;5036662;28;20785;-89
2021/06/03 10:48:17;;;;;;;4.60;4.30;;;28.90;45.10;;;;;;5035973;28;20275;-88
2021/06/03 10:50:49;;;;;;;5.20;4.80;;;29.10;46.40;;;;;;5036103;28;20235;-89
2021/06/03 10:53:27;;;;;;;6.47;4.60;;;29.70;45.20;;;;;;5034693;28;20191;-87
2021/06/03 10:56:13;;;;;;;6.15;4.35;;;30.20;44.60;;;;;;5039096;28;20192;-89
2021/06/03 10:58:40;;;;;;;5.07;4.68;;;30.30;44.30;;;;;;5038165;28;20699;-88
2021/06/03 11:01:07;;;;;;;5.55;4.55;;;30.60;42.80;;;;;;5037071;28;20209;-89
2021/06/03 11:03:48;;;;;;;7.13;4.47;;;30.20;42.90;;;;;;5026730;28;20197;-90
2021/06/03 11:06:20;;;;;;;9.10;6.40;;;29.70;43.80;;;;;;5017995;28;20200;-89
2021/06/03 11:08:47;;;;;;;4.53;4.18;;;29.50;44.60;;;;;;5010567;28;20178;-89
2021/06/03 11:11:13;;;;;;;5.00;4.03;;;29.70;43.40;;;;;;4999735;28;20305;-88
2021/06/03 11:14:09;;;;;;;5.93;4.00;;;30.30;42.50;;;;;;5015886;28;20268;-90
2021/06/03 11:16:35;;;;;;;6.20;4.57;;;30.10;42.50;;;;;;5017831;28;20190;-89
2021/06/03 11:19:00;;;;;;;4.30;3.90;;;29.90;41.30;;;;;;5000534;28;20177;-89
2021/06/03 11:21:38;;;;;;;4.38;4.07;;;29.90;41.50;;;;;;5016583;28;20668;-88
2021/06/03 11:24:37;;;;;;;5.32;4.78;;;29.80;41.80;;;;;;5016755;28;20181;-88
2021/06/03 11:27:05;;;;;;;4.80;4.30;;;30.30;42.10;;;;;;5025947;28;20205;-88
2021/06/03 11:29:50;;;;;;;4.97;4.60;;;30.80;41.20;;;;;;5039671;28;20200;-88
2021/06/03 11:32:17;;;;;;;5.70;4.55;;;30.70;41.60;;;;;;5030886;28;20332;-88
2021/06/03 11:34:48;;;;;;;4.43;3.90;;;30.70;41.10;;;;;;5019803;28;20185;-88
2021/06/03 11:37:18;;;;;;;5.07;4.57;;;30.90;38.90;;;;;;4986292;28;20182;-88
2021/06/03 11:39:48;;;;;;;4.93;4.47;;;30.80;40.20;;;;;;5000076;28;20253;-88
2021/06/03 11:42:24;;;;;;;4.90;4.40;;;31.20;40.90;;;;;;5021279;28;20255;-89
2021/06/03 11:45:03;;;;;;;5.30;4.90;;;31.30;40.10;;;;;;5018059;28;20189;-88
2021/06/03 11:47:55;;;;;;;4.85;4.50;;;31.30;40.40;;;;;;5019011;28;20158;-89
2021/06/03 11:50:21;;;;;;;9.48;5.78;;;31.10;40.50;;;;;;5001560;28;20182;-89
2021/06/03 11:52:56;;;;;;;5.90;5.30;;;31.00;41.00;;;;;;5018718;28;20185;-88
2021/06/03 11:55:35;;;;;;;5.50;5.10;;;31.50;40.30;;;;;;5021191;28;20192;-87
2021/06/03 11:58:15;;;;;;;6.18;5.22;;;31.10;41.00;;;;;;5030174;28;20185;-90
2021/06/03 12:00:52;;;;;;;5.93;4.65;;;31.50;41.50;;;;;;5019955;28;20224;-88
2021/06/03 12:03:38;;;;;;;4.38;4.07;;;31.70;38.80;;;;;;5029982;28;20184;-87
2021/06/03 12:06:13;;;;;;;5.53;5.13;;;31.20;40.20;;;;;;5036534;28;20219;-89
2021/06/03 12:08:54;;;;;;;5.20;4.75;;;31.80;39.70;;;;;;5036959;28;20183;-89
2021/06/03 12:11:20;;;;;;;6.05;5.20;;;32.40;38.10;;;;;;5031020;28;20197;-89
2021/06/03 12:13:48;;;;;;;5.32;4.93;;;32.70;38.40;;;;;;5026940;28;20687;-89
2021/06/03 12:16:14;;;;;;;7.10;5.15;;;32.80;37.90;;;;;;5040572;28;20184;-90
2021/06/03 12:18:42;;;;;;;6.05;5.50;;;32.60;38.90;;;;;;5039450;28;20295;-89
2021/06/03 12:21:12;;;;;;;5.93;4.93;;;33.00;38.90;;;;;;5038992;28;20224;-90
2021/06/03 12:23:53;;;;;;;7.47;5.10;;;32.70;38.70;;;;;;5036067;28;20215;-90
2021/06/03 12:26:22;;;;;;;5.40;4.90;;;32.60;39.20;;;;;;5013507;28;20209;-89
2021/06/03 12:28:48;;;;;;;4.93;4.53;;;32.80;39.20;;;;;;5013403;28;20190;-89
2021/06/03 12:31:19;;;;;;;5.45;4.93;;;33.10;38.70;;;;;;5046982;28;20193;-88
2021/06/03 12:33:45;;;;;;;8.18;5.32;;;32.90;37.90;;;;;;5024651;28;20260;-89
2021/06/03 12:36:10;;;;;;;5.85;5.38;;;32.50;38.10;;;;;;5036978;28;20263;-88
2021/06/03 12:38:45;;;;;;;5.57;5.18;;;32.20;39.70;;;;;;5036816;28;20199;-89
2021/06/03 12:41:29;;;;;;;5.70;5.20;;;31.90;41.30;;;;;;5037206;28;20197;-88
2021/06/03 12:44:04;;;;;;;7.35;5.28;;;31.50;41.30;;;;;;5022114;28;20172;-88
2021/06/03 12:46:36;;;;;;;5.60;5.03;;;31.40;42.20;;;;;;5036152;28;20582;-89
2021/06/03 12:49:09;;;;;;;5.57;5.07;;;31.50;40.80;;;;;;5034585;28;20260;-88
2021/06/03 12:51:54;;;;;;;5.50;5.00;;;31.80;41.40;;;;;;5033683;28;20285;-89
2021/06/03 12:54:37;;;;;;;8.02;5.20;;;32.10;39.80;;;;;;5029516;28;20579;-89
2021/06/03 12:57:09;;;;;;;5.55;5.05;;;32.60;38.30;;;;;;5038085;28;20169;-89
2021/06/03 12:59:38;;;;;;;5.43;4.85;;;33.30;37.60;;;;;;5037087;28;20173;-88
2021/06/03 13:02:10;;;;;;;5.75;4.90;;;33.30;38.10;;;;;;5017503;28;20217;-89